SWA3245 KMCO-KSTL
Flight info
| Callsign | SWA3245 |
|---|---|
| Flight time | 2h 5m |
| Altitude | 38000 |
| Route | RDSOX1 JFRYS PATOY Q116 VLKNN GETME J151 VISQA BOOSH3 |
| Aircraft | B737/M-SADE2E3GIJ4RWZ/LB1D1 |
Departure
| Time | 2026-04-22 02:08 |
|---|---|
| Airport | Orlando International Airport (KMCO) |
Arrival
| Time | 2026-04-22 04:13 |
|---|---|
| Airport | St. Louis Lambert International Airport (KSTL) |
| Time | Latitude | Longitude | Altitude | Speed | Heading |
|---|---|---|---|---|---|
| 2026-04-22 01:38 | 28.43548 | -81.30058 | 91 ft | 0 kts | 254° |
| 2026-04-22 01:56 | 28.43549 | -81.30054 | 91 ft | 2 kts | 254° |
| 2026-04-22 01:56 | 28.43553 | -81.30038 | 91 ft | 2 kts | 255° |
| 2026-04-22 01:57 | 28.43557 | -81.30022 | 91 ft | 2 kts | 254° |
| 2026-04-22 01:57 | 28.43561 | -81.30005 | 91 ft | 2 kts | 254° |
| 2026-04-22 01:57 | 28.43565 | -81.29989 | 91 ft | 2 kts | 254° |
| 2026-04-22 01:57 | 28.43569 | -81.29974 | 91 ft | 2 kts | 254° |
| 2026-04-22 01:58 | 28.43571 | -81.29964 | 91 ft | 0 kts | 254° |
| 2026-04-22 02:01 | 28.43571 | -81.29965 | 91 ft | 0 kts | 254° |
| 2026-04-22 02:01 | 28.43564 | -81.29967 | 91 ft | 1 kts | 161° |
| 2026-04-22 02:02 | 28.43549 | -81.29931 | 91 ft | 9 kts | 112° |
| 2026-04-22 02:02 | 28.43544 | -81.29831 | 91 ft | 14 kts | 111° |
| 2026-04-22 02:02 | 28.43451 | -81.29803 | 91 ft | 16 kts | 179° |
| 2026-04-22 02:02 | 28.43317 | -81.29803 | 91 ft | 22 kts | 182° |
| 2026-04-22 02:03 | 28.43139 | -81.29801 | 91 ft | 28 kts | 180° |
| 2026-04-22 02:03 | 28.42927 | -81.29800 | 91 ft | 32 kts | 179° |
| 2026-04-22 02:03 | 28.42698 | -81.29796 | 88 ft | 32 kts | 179° |
| 2026-04-22 02:03 | 28.42479 | -81.29793 | 88 ft | 30 kts | 176° |
| 2026-04-22 02:04 | 28.42102 | -81.29793 | 91 ft | 23 kts | 178° |
| 2026-04-22 02:04 | 28.41928 | -81.29789 | 91 ft | 27 kts | 179° |
| 2026-04-22 02:04 | 28.41730 | -81.29787 | 90 ft | 29 kts | 180° |
| 2026-04-22 02:05 | 28.41525 | -81.29784 | 89 ft | 30 kts | 179° |
| 2026-04-22 02:05 | 28.41309 | -81.29783 | 87 ft | 31 kts | 180° |
| 2026-04-22 02:05 | 28.41084 | -81.29781 | 85 ft | 33 kts | 179° |
| 2026-04-22 02:05 | 28.40887 | -81.29778 | 84 ft | 15 kts | 178° |
| 2026-04-22 02:06 | 28.40818 | -81.29726 | 84 ft | 14 kts | 94° |
| 2026-04-22 02:06 | 28.40818 | -81.29602 | 84 ft | 17 kts | 91° |
| 2026-04-22 02:06 | 28.40825 | -81.29561 | 84 ft | 0 kts | 35° |
| 2026-04-22 02:06 | 28.40834 | -81.29560 | 84 ft | 2 kts | 359° |
| 2026-04-22 02:07 | 28.40879 | -81.29561 | 84 ft | 14 kts | 358° |
| 2026-04-22 02:07 | 28.41214 | -81.29563 | 85 ft | 82 kts | 0° |
| 2026-04-22 02:07 | 28.41990 | -81.29575 | 89 ft | 141 kts | 0° |
| 2026-04-22 02:07 | 28.43081 | -81.29600 | 413 ft | 165 kts | 0° |
| 2026-04-22 02:08 | 28.44171 | -81.29640 | 1270 ft | 156 kts | 1° |
| 2026-04-22 02:08 | 28.45280 | -81.29658 | 1784 ft | 169 kts | 1° |
| 2026-04-22 02:08 | 28.46517 | -81.29657 | 2277 ft | 185 kts | 1° |
| 2026-04-22 02:08 | 28.47856 | -81.29742 | 2658 ft | 211 kts | 351° |
| 2026-04-22 02:09 | 28.49215 | -81.30308 | 3603 ft | 208 kts | 332° |
| 2026-04-22 02:09 | 28.50487 | -81.31017 | 4405 ft | 210 kts | 346° |
| 2026-04-22 02:09 | 28.52015 | -81.31074 | 4832 ft | 231 kts | 4° |
| 2026-04-22 02:09 | 28.53613 | -81.31242 | 5506 ft | 241 kts | 340° |
| 2026-04-22 02:10 | 28.55099 | -81.32201 | 6148 ft | 254 kts | 326° |
| 2026-04-22 02:10 | 28.56592 | -81.33279 | 7095 ft | 262 kts | 328° |
| 2026-04-22 02:10 | 28.58177 | -81.34332 | 8156 ft | 265 kts | 327° |
| 2026-04-22 02:10 | 28.59502 | -81.35700 | 9166 ft | 264 kts | 300° |
| 2026-04-22 02:11 | 28.60028 | -81.37650 | 9990 ft | 269 kts | 269° |
| 2026-04-22 02:11 | 28.59845 | -81.39820 | 10616 ft | 287 kts | 263° |
| 2026-04-22 02:11 | 28.59720 | -81.42194 | 11040 ft | 314 kts | 268° |
| 2026-04-22 02:11 | 28.59691 | -81.44758 | 11484 ft | 339 kts | 269° |
| 2026-04-22 02:12 | 28.59656 | -81.47504 | 12087 ft | 358 kts | 268° |
| 2026-04-22 02:12 | 28.59315 | -81.50307 | 13045 ft | 364 kts | 253° |
| 2026-04-22 02:12 | 28.58321 | -81.52955 | 14091 ft | 368 kts | 245° |
| 2026-04-22 02:12 | 28.57219 | -81.55589 | 15119 ft | 371 kts | 246° |
| 2026-04-22 02:13 | 28.56156 | -81.58251 | 16119 ft | 374 kts | 246° |
| 2026-04-22 02:13 | 28.55092 | -81.60926 | 17080 ft | 377 kts | 246° |
| 2026-04-22 02:13 | 28.53998 | -81.63655 | 18023 ft | 380 kts | 246° |
| 2026-04-22 02:13 | 28.52908 | -81.66370 | 18925 ft | 383 kts | 246° |
| 2026-04-22 02:14 | 28.51803 | -81.69119 | 19808 ft | 386 kts | 246° |
| 2026-04-22 02:14 | 28.50695 | -81.71879 | 20658 ft | 388 kts | 246° |
| 2026-04-22 02:14 | 28.49577 | -81.74657 | 21475 ft | 391 kts | 246° |
| 2026-04-22 02:14 | 28.48448 | -81.77462 | 22263 ft | 394 kts | 246° |
| 2026-04-22 02:15 | 28.47301 | -81.80309 | 23027 ft | 397 kts | 246° |
| 2026-04-22 02:15 | 28.46159 | -81.83142 | 23758 ft | 400 kts | 246° |
| 2026-04-22 02:15 | 28.45000 | -81.86018 | 24478 ft | 402 kts | 246° |
| 2026-04-22 02:15 | 28.43941 | -81.88957 | 25172 ft | 404 kts | 251° |
| 2026-04-22 02:16 | 28.43164 | -81.92015 | 25840 ft | 407 kts | 257° |
| 2026-04-22 02:16 | 28.42774 | -81.95222 | 26487 ft | 410 kts | 265° |
| 2026-04-22 02:16 | 28.42759 | -81.98444 | 27107 ft | 414 kts | 269° |
| 2026-04-22 02:16 | 28.42828 | -82.01730 | 27708 ft | 416 kts | 269° |
| 2026-04-22 02:17 | 28.42864 | -82.05016 | 28279 ft | 418 kts | 269° |
| 2026-04-22 02:17 | 28.42894 | -82.08296 | 29069 ft | 415 kts | 269° |
| 2026-04-22 02:17 | 28.42933 | -82.11517 | 29979 ft | 408 kts | 269° |
| 2026-04-22 02:17 | 28.42977 | -82.14703 | 30705 ft | 404 kts | 269° |
| 2026-04-22 02:18 | 28.43019 | -82.17850 | 31411 ft | 401 kts | 269° |
| 2026-04-22 02:18 | 28.43062 | -82.21001 | 32095 ft | 397 kts | 268° |
| 2026-04-22 02:18 | 28.43106 | -82.24126 | 32744 ft | 394 kts | 268° |
| 2026-04-22 02:18 | 28.43148 | -82.27177 | 33353 ft | 391 kts | 268° |
| 2026-04-22 02:19 | 28.43190 | -82.30250 | 33940 ft | 388 kts | 268° |
| 2026-04-22 02:19 | 28.43232 | -82.33302 | 34447 ft | 387 kts | 268° |
| 2026-04-22 02:19 | 28.43291 | -82.36361 | 34917 ft | 386 kts | 270° |
| 2026-04-22 02:19 | 28.43563 | -82.39350 | 35357 ft | 388 kts | 276° |
| 2026-04-22 02:20 | 28.44247 | -82.42346 | 35781 ft | 393 kts | 284° |
| 2026-04-22 02:20 | 28.45355 | -82.45197 | 36190 ft | 397 kts | 291° |
| 2026-04-22 02:20 | 28.46777 | -82.47903 | 36549 ft | 403 kts | 298° |
| 2026-04-22 02:20 | 28.48599 | -82.50331 | 36862 ft | 415 kts | 309° |
| 2026-04-22 02:21 | 28.50881 | -82.52409 | 37196 ft | 424 kts | 317° |
| 2026-04-22 02:21 | 28.53387 | -82.54195 | 37514 ft | 429 kts | 321° |
| 2026-04-22 02:21 | 28.55959 | -82.55896 | 37818 ft | 429 kts | 321° |
| 2026-04-22 02:21 | 28.58501 | -82.57612 | 38108 ft | 429 kts | 320° |
| 2026-04-22 02:22 | 28.61036 | -82.59346 | 38307 ft | 430 kts | 320° |
| 2026-04-22 02:22 | 28.66196 | -82.62844 | 38302 ft | 432 kts | 321° |
| 2026-04-22 02:23 | 28.71324 | -82.66293 | 38303 ft | 428 kts | 320° |
| 2026-04-22 02:23 | 28.76442 | -82.69743 | 38302 ft | 428 kts | 320° |
| 2026-04-22 02:24 | 28.81545 | -82.73182 | 38333 ft | 429 kts | 320° |
| 2026-04-22 02:24 | 28.84082 | -82.74891 | 38656 ft | 428 kts | 320° |
| 2026-04-22 02:24 | 28.86671 | -82.76636 | 38921 ft | 429 kts | 320° |
| 2026-04-22 02:24 | 28.89204 | -82.78344 | 39174 ft | 429 kts | 320° |
| 2026-04-22 02:25 | 28.91759 | -82.80068 | 39429 ft | 429 kts | 320° |
| 2026-04-22 02:25 | 28.94345 | -82.81813 | 39698 ft | 429 kts | 320° |
| 2026-04-22 02:25 | 28.96870 | -82.83518 | 39954 ft | 428 kts | 320° |
| 2026-04-22 02:25 | 28.99439 | -82.85252 | 40217 ft | 427 kts | 320° |
| 2026-04-22 02:26 | 29.01989 | -82.86979 | 40308 ft | 430 kts | 321° |
| 2026-04-22 02:26 | 29.07124 | -82.90469 | 40300 ft | 429 kts | 320° |
| 2026-04-22 02:27 | 29.11952 | -82.94389 | 40296 ft | 431 kts | 316° |
| 2026-04-22 02:27 | 29.16812 | -82.98425 | 40294 ft | 434 kts | 317° |
| 2026-04-22 02:28 | 29.21695 | -83.02419 | 40293 ft | 432 kts | 317° |
| 2026-04-22 02:28 | 29.26559 | -83.06413 | 40292 ft | 431 kts | 317° |
| 2026-04-22 02:29 | 29.31409 | -83.10394 | 40292 ft | 432 kts | 318° |
| 2026-04-22 02:29 | 29.36273 | -83.14387 | 40292 ft | 432 kts | 318° |
| 2026-04-22 02:30 | 29.41157 | -83.18401 | 40292 ft | 432 kts | 318° |
| 2026-04-22 02:30 | 29.46026 | -83.22406 | 40292 ft | 432 kts | 318° |
| 2026-04-22 02:31 | 29.50858 | -83.26386 | 40292 ft | 432 kts | 318° |
| 2026-04-22 02:31 | 29.55732 | -83.30405 | 40292 ft | 432 kts | 318° |
| 2026-04-22 02:32 | 29.60586 | -83.34412 | 40292 ft | 432 kts | 318° |
| 2026-04-22 02:32 | 29.65444 | -83.38427 | 40292 ft | 432 kts | 318° |
| 2026-04-22 02:33 | 29.70275 | -83.42424 | 40292 ft | 432 kts | 318° |
| 2026-04-22 02:33 | 29.75139 | -83.46455 | 40292 ft | 432 kts | 318° |
| 2026-04-22 02:34 | 29.79965 | -83.50457 | 40292 ft | 432 kts | 318° |
| 2026-04-22 02:34 | 29.84846 | -83.54511 | 40292 ft | 432 kts | 318° |
| 2026-04-22 02:35 | 29.89679 | -83.58528 | 40292 ft | 432 kts | 318° |
| 2026-04-22 02:35 | 29.94520 | -83.62555 | 40292 ft | 432 kts | 318° |
| 2026-04-22 02:36 | 29.99380 | -83.66604 | 40290 ft | 432 kts | 317° |
| 2026-04-22 02:36 | 30.04217 | -83.70637 | 40287 ft | 431 kts | 317° |
| 2026-04-22 02:37 | 30.09049 | -83.74670 | 40284 ft | 431 kts | 317° |
| 2026-04-22 02:37 | 30.13916 | -83.78740 | 40283 ft | 431 kts | 317° |
| 2026-04-22 02:38 | 30.18732 | -83.82772 | 40283 ft | 431 kts | 317° |
| 2026-04-22 02:38 | 30.23570 | -83.86832 | 40283 ft | 431 kts | 317° |
| 2026-04-22 02:39 | 30.28422 | -83.90908 | 40285 ft | 431 kts | 317° |
| 2026-04-22 02:39 | 30.33231 | -83.94952 | 40285 ft | 431 kts | 317° |
| 2026-04-22 02:40 | 30.38056 | -83.99015 | 40284 ft | 431 kts | 317° |
| 2026-04-22 02:40 | 30.42870 | -84.03074 | 40285 ft | 431 kts | 317° |
| 2026-04-22 02:41 | 30.47724 | -84.07172 | 40289 ft | 431 kts | 317° |
| 2026-04-22 02:41 | 30.52552 | -84.11253 | 40291 ft | 431 kts | 317° |
| 2026-04-22 02:42 | 30.57349 | -84.15313 | 40297 ft | 431 kts | 317° |
| 2026-04-22 02:42 | 30.62177 | -84.19405 | 40291 ft | 432 kts | 317° |
| 2026-04-22 02:43 | 30.67039 | -84.23530 | 40285 ft | 431 kts | 317° |
| 2026-04-22 02:43 | 30.71848 | -84.27615 | 40284 ft | 431 kts | 317° |
| 2026-04-22 02:44 | 30.76670 | -84.31717 | 40287 ft | 431 kts | 317° |
| 2026-04-22 02:44 | 30.81501 | -84.35832 | 40290 ft | 431 kts | 317° |
| 2026-04-22 02:45 | 30.86295 | -84.39920 | 40292 ft | 431 kts | 317° |
| 2026-04-22 02:45 | 30.91146 | -84.44062 | 40292 ft | 432 kts | 317° |
| 2026-04-22 02:46 | 30.95947 | -84.48168 | 40292 ft | 433 kts | 317° |
| 2026-04-22 02:46 | 31.00816 | -84.52337 | 40292 ft | 435 kts | 318° |
| 2026-04-22 02:47 | 31.05663 | -84.56491 | 40292 ft | 436 kts | 318° |
| 2026-04-22 02:47 | 31.10538 | -84.60675 | 40292 ft | 436 kts | 318° |
| 2026-04-22 02:48 | 31.15389 | -84.64842 | 40292 ft | 435 kts | 318° |
| 2026-04-22 02:48 | 31.20269 | -84.69041 | 40292 ft | 435 kts | 317° |
| 2026-04-22 02:49 | 31.25106 | -84.73209 | 40295 ft | 435 kts | 317° |
| 2026-04-22 02:49 | 31.29971 | -84.77406 | 40298 ft | 435 kts | 317° |
| 2026-04-22 02:50 | 31.34801 | -84.81578 | 40301 ft | 435 kts | 317° |
| 2026-04-22 02:50 | 31.39656 | -84.85779 | 40301 ft | 435 kts | 317° |
| 2026-04-22 02:51 | 31.44523 | -84.89993 | 40301 ft | 435 kts | 317° |
| 2026-04-22 02:51 | 31.49364 | -84.94192 | 40301 ft | 435 kts | 317° |
| 2026-04-22 02:52 | 31.54184 | -84.98377 | 40302 ft | 435 kts | 318° |
| 2026-04-22 02:52 | 31.59039 | -85.02602 | 40303 ft | 433 kts | 318° |
| 2026-04-22 02:53 | 31.63815 | -85.06784 | 40303 ft | 431 kts | 318° |
| 2026-04-22 02:53 | 31.68586 | -85.10967 | 40302 ft | 429 kts | 318° |
| 2026-04-22 02:54 | 31.73346 | -85.15144 | 40301 ft | 428 kts | 318° |
| 2026-04-22 02:54 | 31.78087 | -85.19310 | 40301 ft | 426 kts | 319° |
| 2026-04-22 02:55 | 31.82795 | -85.23453 | 40302 ft | 426 kts | 319° |
| 2026-04-22 02:55 | 31.87514 | -85.27610 | 40301 ft | 426 kts | 319° |
| 2026-04-22 02:56 | 31.92260 | -85.31797 | 40301 ft | 426 kts | 319° |
| 2026-04-22 02:56 | 31.96963 | -85.35951 | 40301 ft | 426 kts | 319° |
| 2026-04-22 02:57 | 32.01702 | -85.40143 | 40301 ft | 426 kts | 319° |
| 2026-04-22 02:57 | 32.06436 | -85.44336 | 40301 ft | 427 kts | 319° |
| 2026-04-22 02:58 | 32.11048 | -85.48426 | 40300 ft | 426 kts | 319° |
| 2026-04-22 02:58 | 32.15815 | -85.52657 | 40298 ft | 426 kts | 318° |
| 2026-04-22 02:59 | 32.20511 | -85.56833 | 40300 ft | 426 kts | 319° |
| 2026-04-22 02:59 | 32.25236 | -85.61040 | 40304 ft | 426 kts | 319° |
| 2026-04-22 03:00 | 32.29924 | -85.65219 | 40308 ft | 426 kts | 318° |
| 2026-04-22 03:00 | 32.34639 | -85.69428 | 40309 ft | 426 kts | 318° |
| 2026-04-22 03:01 | 32.39373 | -85.73659 | 40303 ft | 426 kts | 318° |
| 2026-04-22 03:01 | 32.44073 | -85.77867 | 40302 ft | 426 kts | 318° |
| 2026-04-22 03:02 | 32.48774 | -85.82079 | 40305 ft | 426 kts | 318° |
| 2026-04-22 03:02 | 32.53496 | -85.86318 | 40304 ft | 426 kts | 318° |
| 2026-04-22 03:03 | 32.58186 | -85.90533 | 40302 ft | 426 kts | 318° |
| 2026-04-22 03:03 | 32.62884 | -85.94761 | 40297 ft | 426 kts | 318° |
| 2026-04-22 03:04 | 32.67569 | -85.98982 | 40292 ft | 426 kts | 318° |
| 2026-04-22 03:04 | 32.72292 | -86.03243 | 40291 ft | 426 kts | 318° |
| 2026-04-22 03:05 | 32.76976 | -86.07475 | 40295 ft | 426 kts | 318° |
| 2026-04-22 03:05 | 32.81652 | -86.11706 | 40302 ft | 426 kts | 318° |
| 2026-04-22 03:06 | 32.86347 | -86.15961 | 40301 ft | 426 kts | 318° |
| 2026-04-22 03:06 | 32.91054 | -86.20231 | 40303 ft | 426 kts | 318° |
| 2026-04-22 03:07 | 32.95756 | -86.24502 | 40304 ft | 426 kts | 318° |
| 2026-04-22 03:07 | 33.00435 | -86.28758 | 40307 ft | 424 kts | 318° |
| 2026-04-22 03:08 | 33.05041 | -86.32959 | 40309 ft | 417 kts | 318° |
| 2026-04-22 03:08 | 33.09623 | -86.37151 | 40311 ft | 414 kts | 318° |
| 2026-04-22 03:09 | 33.14094 | -86.41257 | 40311 ft | 410 kts | 318° |
| 2026-04-22 03:09 | 33.18618 | -86.45402 | 40307 ft | 409 kts | 319° |
| 2026-04-22 03:10 | 33.23106 | -86.49522 | 40303 ft | 411 kts | 319° |
| 2026-04-22 03:10 | 33.27609 | -86.53664 | 40301 ft | 410 kts | 319° |
| 2026-04-22 03:11 | 33.32109 | -86.57794 | 40300 ft | 411 kts | 319° |
| 2026-04-22 03:11 | 33.36607 | -86.61923 | 40303 ft | 410 kts | 319° |
| 2026-04-22 03:12 | 33.41128 | -86.66037 | 40306 ft | 411 kts | 319° |
| 2026-04-22 03:12 | 33.47887 | -86.72231 | 40308 ft | 412 kts | 318° |
| 2026-04-22 03:13 | 33.52404 | -86.76379 | 40308 ft | 412 kts | 318° |
| 2026-04-22 03:13 | 33.56935 | -86.80566 | 40309 ft | 411 kts | 318° |
| 2026-04-22 03:14 | 33.61408 | -86.84709 | 40311 ft | 412 kts | 318° |
| 2026-04-22 03:14 | 33.65894 | -86.88860 | 40311 ft | 411 kts | 318° |
| 2026-04-22 03:15 | 33.70499 | -86.92793 | 40308 ft | 414 kts | 323° |
| 2026-04-22 03:15 | 33.75365 | -86.96513 | 40305 ft | 414 kts | 322° |
| 2026-04-22 03:16 | 33.80171 | -87.00312 | 40300 ft | 413 kts | 322° |
| 2026-04-22 03:16 | 33.84959 | -87.04073 | 40297 ft | 412 kts | 322° |
| 2026-04-22 03:17 | 33.89740 | -87.07812 | 40295 ft | 411 kts | 322° |
| 2026-04-22 03:17 | 33.94474 | -87.11561 | 40292 ft | 412 kts | 322° |
| 2026-04-22 03:18 | 33.99227 | -87.15361 | 40292 ft | 412 kts | 322° |
| 2026-04-22 03:18 | 34.03978 | -87.19128 | 40293 ft | 410 kts | 322° |
| 2026-04-22 03:19 | 34.08781 | -87.22892 | 40292 ft | 411 kts | 322° |
| 2026-04-22 03:19 | 34.13465 | -87.26617 | 40293 ft | 410 kts | 322° |
| 2026-04-22 03:20 | 34.18218 | -87.30422 | 40293 ft | 412 kts | 322° |
| 2026-04-22 03:20 | 34.22939 | -87.34199 | 40293 ft | 410 kts | 322° |
| 2026-04-22 03:21 | 34.27663 | -87.37953 | 40287 ft | 412 kts | 322° |
| 2026-04-22 03:21 | 34.32451 | -87.41734 | 40279 ft | 412 kts | 322° |
| 2026-04-22 03:22 | 34.37228 | -87.45526 | 40271 ft | 412 kts | 322° |
| 2026-04-22 03:22 | 34.41957 | -87.49332 | 40265 ft | 410 kts | 322° |
| 2026-04-22 03:23 | 34.46691 | -87.53135 | 40265 ft | 410 kts | 322° |
| 2026-04-22 03:23 | 34.51443 | -87.56930 | 40265 ft | 412 kts | 322° |
| 2026-04-22 03:24 | 34.56193 | -87.60731 | 40265 ft | 412 kts | 322° |
| 2026-04-22 03:24 | 34.60962 | -87.64580 | 40265 ft | 411 kts | 322° |
| 2026-04-22 03:25 | 34.65689 | -87.68414 | 40265 ft | 411 kts | 321° |
| 2026-04-22 03:25 | 34.70407 | -87.72233 | 40265 ft | 410 kts | 322° |
| 2026-04-22 03:26 | 34.75146 | -87.76035 | 40265 ft | 412 kts | 322° |
| 2026-04-22 03:26 | 34.79883 | -87.79876 | 40265 ft | 410 kts | 321° |
| 2026-04-22 03:27 | 34.84581 | -87.83717 | 40265 ft | 410 kts | 321° |
| 2026-04-22 03:27 | 34.89286 | -87.87551 | 40262 ft | 411 kts | 321° |
| 2026-04-22 03:28 | 34.94033 | -87.91402 | 40257 ft | 408 kts | 321° |
| 2026-04-22 03:28 | 34.98736 | -87.95176 | 40253 ft | 405 kts | 321° |
| 2026-04-22 03:29 | 35.03366 | -87.98933 | 40249 ft | 403 kts | 320° |
| 2026-04-22 03:29 | 35.07999 | -88.02753 | 40242 ft | 403 kts | 320° |
| 2026-04-22 03:30 | 35.12635 | -88.06560 | 40238 ft | 402 kts | 320° |
| 2026-04-22 03:30 | 35.17245 | -88.10350 | 40237 ft | 402 kts | 320° |
| 2026-04-22 03:31 | 35.21879 | -88.14143 | 40237 ft | 403 kts | 321° |
| 2026-04-22 03:31 | 35.26541 | -88.17923 | 40237 ft | 403 kts | 321° |
| 2026-04-22 03:32 | 35.31162 | -88.21719 | 40237 ft | 401 kts | 320° |
| 2026-04-22 03:32 | 35.35789 | -88.25547 | 40238 ft | 402 kts | 320° |
| 2026-04-22 03:33 | 35.40437 | -88.29365 | 40239 ft | 404 kts | 320° |
| 2026-04-22 03:33 | 35.45064 | -88.33174 | 40242 ft | 402 kts | 320° |
| 2026-04-22 03:34 | 35.49671 | -88.37005 | 40245 ft | 402 kts | 320° |
| 2026-04-22 03:34 | 35.54303 | -88.40852 | 40246 ft | 403 kts | 320° |
| 2026-04-22 03:35 | 35.58907 | -88.44688 | 40247 ft | 403 kts | 320° |
| 2026-04-22 03:35 | 35.63535 | -88.48543 | 40247 ft | 402 kts | 320° |
| 2026-04-22 03:36 | 35.68177 | -88.52371 | 40247 ft | 403 kts | 320° |
| 2026-04-22 03:36 | 35.72820 | -88.56205 | 40237 ft | 404 kts | 321° |
| 2026-04-22 03:37 | 35.77443 | -88.60053 | 40230 ft | 402 kts | 320° |
| 2026-04-22 03:37 | 35.82019 | -88.63917 | 40225 ft | 401 kts | 320° |
| 2026-04-22 03:38 | 35.86625 | -88.67743 | 40224 ft | 403 kts | 320° |
| 2026-04-22 03:38 | 35.91259 | -88.71594 | 40223 ft | 403 kts | 320° |
| 2026-04-22 03:39 | 35.95874 | -88.75455 | 40218 ft | 402 kts | 320° |
| 2026-04-22 03:39 | 36.00473 | -88.79346 | 40210 ft | 401 kts | 320° |
| 2026-04-22 03:40 | 36.05029 | -88.83219 | 40210 ft | 402 kts | 319° |
| 2026-04-22 03:40 | 36.09636 | -88.87124 | 40208 ft | 402 kts | 320° |
| 2026-04-22 03:41 | 36.14243 | -88.90998 | 40204 ft | 403 kts | 320° |
| 2026-04-22 03:41 | 36.18840 | -88.94849 | 40201 ft | 403 kts | 320° |
| 2026-04-22 03:42 | 36.23486 | -88.98776 | 40201 ft | 403 kts | 320° |
| 2026-04-22 03:42 | 36.28107 | -89.02607 | 40200 ft | 407 kts | 323° |
| 2026-04-22 03:43 | 36.33190 | -89.05698 | 40201 ft | 412 kts | 328° |
| 2026-04-22 03:43 | 36.38355 | -89.08690 | 40201 ft | 412 kts | 328° |
| 2026-04-22 03:44 | 36.43556 | -89.11693 | 40201 ft | 412 kts | 328° |
| 2026-04-22 03:44 | 36.48700 | -89.14634 | 40201 ft | 412 kts | 328° |
| 2026-04-22 03:45 | 36.53916 | -89.17617 | 40196 ft | 412 kts | 328° |
| 2026-04-22 03:45 | 36.59091 | -89.20573 | 40189 ft | 412 kts | 328° |
| 2026-04-22 03:46 | 36.64270 | -89.23533 | 40180 ft | 411 kts | 328° |
| 2026-04-22 03:46 | 36.69446 | -89.26495 | 40178 ft | 412 kts | 328° |
| 2026-04-22 03:47 | 36.74619 | -89.29459 | 40179 ft | 412 kts | 328° |
| 2026-04-22 03:47 | 36.79788 | -89.32423 | 40181 ft | 412 kts | 328° |
| 2026-04-22 03:48 | 36.84981 | -89.35407 | 40180 ft | 412 kts | 328° |
| 2026-04-22 03:48 | 36.90151 | -89.38380 | 40179 ft | 411 kts | 328° |
| 2026-04-22 03:49 | 36.95348 | -89.41375 | 40178 ft | 412 kts | 329° |
| 2026-04-22 03:49 | 37.00505 | -89.44350 | 40175 ft | 412 kts | 328° |
| 2026-04-22 03:50 | 37.05707 | -89.47356 | 40171 ft | 411 kts | 328° |
| 2026-04-22 03:50 | 37.10824 | -89.50317 | 39170 ft | 415 kts | 328° |
| 2026-04-22 03:51 | 37.13399 | -89.51811 | 38353 ft | 409 kts | 328° |
| 2026-04-22 03:51 | 37.15959 | -89.53291 | 37675 ft | 407 kts | 327° |
| 2026-04-22 03:51 | 37.18506 | -89.54768 | 36999 ft | 405 kts | 327° |
| 2026-04-22 03:51 | 37.21075 | -89.56261 | 36310 ft | 403 kts | 327° |
| 2026-04-22 03:52 | 37.23579 | -89.57709 | 35596 ft | 403 kts | 328° |
| 2026-04-22 03:52 | 37.26136 | -89.59120 | 34847 ft | 404 kts | 329° |
| 2026-04-22 03:52 | 37.28730 | -89.60510 | 34065 ft | 405 kts | 329° |
| 2026-04-22 03:52 | 37.31274 | -89.61885 | 33275 ft | 406 kts | 329° |
| 2026-04-22 03:53 | 37.33879 | -89.63306 | 32446 ft | 407 kts | 329° |
| 2026-04-22 03:53 | 37.36435 | -89.64702 | 31613 ft | 408 kts | 329° |
| 2026-04-22 03:53 | 37.39051 | -89.66129 | 30740 ft | 411 kts | 329° |
| 2026-04-22 03:53 | 37.41646 | -89.67548 | 29849 ft | 414 kts | 329° |
| 2026-04-22 03:54 | 37.44287 | -89.68993 | 28910 ft | 417 kts | 329° |
| 2026-04-22 03:54 | 37.46906 | -89.70424 | 28211 ft | 413 kts | 329° |
| 2026-04-22 03:54 | 37.49527 | -89.71855 | 27542 ft | 410 kts | 329° |
| 2026-04-22 03:54 | 37.52129 | -89.73278 | 27008 ft | 403 kts | 329° |
| 2026-04-22 03:55 | 37.54621 | -89.74638 | 26825 ft | 388 kts | 329° |
| 2026-04-22 03:55 | 37.57085 | -89.75987 | 26307 ft | 383 kts | 328° |
| 2026-04-22 03:55 | 37.59519 | -89.77330 | 25690 ft | 381 kts | 329° |
| 2026-04-22 03:55 | 37.61893 | -89.78638 | 25108 ft | 378 kts | 329° |
| 2026-04-22 03:56 | 37.64303 | -89.79965 | 24514 ft | 375 kts | 329° |
| 2026-04-22 03:56 | 37.66669 | -89.81268 | 23930 ft | 372 kts | 329° |
| 2026-04-22 03:56 | 37.69022 | -89.82566 | 23347 ft | 369 kts | 329° |
| 2026-04-22 03:56 | 37.71350 | -89.83851 | 22770 ft | 366 kts | 329° |
| 2026-04-22 03:57 | 37.73645 | -89.85118 | 22201 ft | 363 kts | 329° |
| 2026-04-22 03:57 | 37.75948 | -89.86390 | 21629 ft | 361 kts | 329° |
| 2026-04-22 03:57 | 37.78227 | -89.87650 | 21063 ft | 358 kts | 329° |
| 2026-04-22 03:57 | 37.80492 | -89.88904 | 20498 ft | 355 kts | 329° |
| 2026-04-22 03:58 | 37.82735 | -89.90145 | 19937 ft | 353 kts | 329° |
| 2026-04-22 03:58 | 37.84975 | -89.91386 | 19375 ft | 350 kts | 329° |
| 2026-04-22 03:58 | 37.87173 | -89.92601 | 18822 ft | 348 kts | 329° |
| 2026-04-22 03:58 | 37.89409 | -89.93803 | 18262 ft | 346 kts | 329° |
| 2026-04-22 03:59 | 37.91607 | -89.94975 | 17661 ft | 345 kts | 329° |
| 2026-04-22 03:59 | 37.93795 | -89.96149 | 17084 ft | 343 kts | 329° |
| 2026-04-22 03:59 | 37.95952 | -89.97323 | 16532 ft | 340 kts | 329° |
| 2026-04-22 03:59 | 37.98102 | -89.98541 | 15987 ft | 337 kts | 328° |
| 2026-04-22 04:00 | 38.00216 | -89.99742 | 15447 ft | 335 kts | 329° |
| 2026-04-22 04:00 | 38.02336 | -90.00939 | 14908 ft | 333 kts | 329° |
| 2026-04-22 04:00 | 38.04447 | -90.02132 | 14369 ft | 330 kts | 329° |
| 2026-04-22 04:00 | 38.06531 | -90.03310 | 13835 ft | 328 kts | 329° |
| 2026-04-22 04:01 | 38.08579 | -90.04469 | 13311 ft | 326 kts | 329° |
| 2026-04-22 04:01 | 38.10645 | -90.05639 | 12782 ft | 324 kts | 329° |
| 2026-04-22 04:01 | 38.12742 | -90.06711 | 12245 ft | 327 kts | 336° |
| 2026-04-22 04:01 | 38.14981 | -90.07163 | 11719 ft | 334 kts | 348° |
| 2026-04-22 04:02 | 38.17297 | -90.07376 | 11185 ft | 333 kts | 348° |
| 2026-04-22 04:02 | 38.19571 | -90.07629 | 10827 ft | 326 kts | 347° |
| 2026-04-22 04:02 | 38.21812 | -90.07885 | 10517 ft | 318 kts | 347° |
| 2026-04-22 04:02 | 38.23930 | -90.08116 | 10351 ft | 299 kts | 347° |
| 2026-04-22 04:03 | 38.25947 | -90.08337 | 10233 ft | 283 kts | 346° |
| 2026-04-22 04:03 | 38.27868 | -90.08557 | 10015 ft | 276 kts | 346° |
| 2026-04-22 04:03 | 38.29733 | -90.08765 | 9836 ft | 269 kts | 346° |
| 2026-04-22 04:03 | 38.31613 | -90.08982 | 9461 ft | 276 kts | 347° |
| 2026-04-22 04:04 | 38.33519 | -90.09194 | 9099 ft | 275 kts | 347° |
| 2026-04-22 04:04 | 38.35440 | -90.09408 | 8738 ft | 276 kts | 347° |
| 2026-04-22 04:04 | 38.37332 | -90.09669 | 8382 ft | 274 kts | 342° |
| 2026-04-22 04:04 | 38.39186 | -90.10189 | 8027 ft | 272 kts | 340° |
| 2026-04-22 04:05 | 38.41024 | -90.10694 | 7675 ft | 273 kts | 341° |
| 2026-04-22 04:05 | 38.42868 | -90.11163 | 7326 ft | 272 kts | 342° |
| 2026-04-22 04:05 | 38.44712 | -90.11631 | 6977 ft | 271 kts | 342° |
| 2026-04-22 04:05 | 38.46574 | -90.12099 | 6626 ft | 271 kts | 342° |
| 2026-04-22 04:06 | 38.48401 | -90.12558 | 6280 ft | 270 kts | 343° |
| 2026-04-22 04:06 | 38.50226 | -90.13015 | 5935 ft | 269 kts | 343° |
| 2026-04-22 04:06 | 38.52075 | -90.13478 | 5583 ft | 268 kts | 343° |
| 2026-04-22 04:06 | 38.53888 | -90.13932 | 5251 ft | 267 kts | 343° |
| 2026-04-22 04:07 | 38.55663 | -90.14374 | 5095 ft | 258 kts | 343° |
| 2026-04-22 04:07 | 38.57396 | -90.14806 | 4936 ft | 250 kts | 343° |
| 2026-04-22 04:07 | 38.59068 | -90.15221 | 4666 ft | 243 kts | 344° |
| 2026-04-22 04:07 | 38.60699 | -90.15623 | 4395 ft | 231 kts | 343° |
| 2026-04-22 04:08 | 38.62228 | -90.16003 | 4156 ft | 219 kts | 343° |
| 2026-04-22 04:08 | 38.63701 | -90.16370 | 3931 ft | 212 kts | 343° |
| 2026-04-22 04:08 | 38.65029 | -90.16805 | 3710 ft | 187 kts | 328° |
| 2026-04-22 04:08 | 38.65926 | -90.17811 | 3481 ft | 159 kts | 303° |
| 2026-04-22 04:09 | 38.66553 | -90.18861 | 3290 ft | 137 kts | 299° |
| 2026-04-22 04:09 | 38.67064 | -90.19810 | 3139 ft | 131 kts | 297° |
| 2026-04-22 04:09 | 38.67570 | -90.20801 | 2934 ft | 130 kts | 296° |
| 2026-04-22 04:09 | 38.68054 | -90.21776 | 2758 ft | 131 kts | 296° |
| 2026-04-22 04:10 | 38.68537 | -90.22759 | 2585 ft | 131 kts | 296° |
| 2026-04-22 04:10 | 38.69021 | -90.23749 | 2412 ft | 131 kts | 296° |
| 2026-04-22 04:10 | 38.69508 | -90.24749 | 2237 ft | 131 kts | 296° |
| 2026-04-22 04:10 | 38.69989 | -90.25736 | 2063 ft | 131 kts | 297° |
| 2026-04-22 04:11 | 38.70432 | -90.26752 | 1906 ft | 129 kts | 291° |
| 2026-04-22 04:11 | 38.70822 | -90.27769 | 1748 ft | 128 kts | 291° |
| 2026-04-22 04:11 | 38.71257 | -90.28793 | 1535 ft | 133 kts | 297° |
| 2026-04-22 04:11 | 38.71768 | -90.29776 | 1400 ft | 131 kts | 300° |
| 2026-04-22 04:12 | 38.72286 | -90.30737 | 1225 ft | 132 kts | 299° |
| 2026-04-22 04:12 | 38.72768 | -90.31737 | 1047 ft | 133 kts | 297° |
| 2026-04-22 04:12 | 38.73257 | -90.32750 | 893 ft | 133 kts | 300° |
| 2026-04-22 04:12 | 38.73763 | -90.33729 | 680 ft | 132 kts | 299° |
| 2026-04-22 04:13 | 38.74209 | -90.34672 | 583 ft | 103 kts | 300° |
| 2026-04-22 04:13 | 38.74498 | -90.35246 | 555 ft | 47 kts | 304° |
| 2026-04-22 04:13 | 38.74622 | -90.35503 | 547 ft | 28 kts | 301° |
| 2026-04-22 04:13 | 38.74706 | -90.35674 | 547 ft | 17 kts | 298° |
| 2026-04-22 04:14 | 38.74739 | -90.35824 | 544 ft | 18 kts | 280° |
| 2026-04-22 04:14 | 38.74747 | -90.35959 | 544 ft | 13 kts | 271° |
| 2026-04-22 04:14 | 38.74748 | -90.36074 | 544 ft | 12 kts | 270° |
| 2026-04-22 04:14 | 38.74747 | -90.36176 | 544 ft | 10 kts | 269° |
| 2026-04-22 04:15 | 38.74714 | -90.36248 | 544 ft | 9 kts | 212° |
| 2026-04-22 04:15 | 38.74656 | -90.36300 | 544 ft | 9 kts | 219° |
| 2026-04-22 04:15 | 38.74619 | -90.36360 | 545 ft | 9 kts | 254° |
| 2026-04-22 04:15 | 38.74575 | -90.36472 | 546 ft | 15 kts | 216° |
| 2026-04-22 04:16 | 38.74507 | -90.36407 | 547 ft | 13 kts | 121° |
| 2026-04-22 04:16 | 38.74419 | -90.36362 | 549 ft | 6 kts | 268° |
| 2026-04-22 04:16 | 38.74446 | -90.36427 | 548 ft | 9 kts | 300° |
| 2026-04-22 04:17 | 38.74432 | -90.36485 | 549 ft | 5 kts | 205° |
| 2026-04-22 04:17 | 38.74410 | -90.36499 | 551 ft | 1 kts | 212° |
| 2026-04-22 04:17 | 38.74403 | -90.36506 | 551 ft | 0 kts | 214° |